Historyczne dane pomiarowe

Dodano dane terminowe – wersja testowa.

Dane z okresu 1951-2019

Wersja bazy: 1.34 [2019-03-16, lista zmian], aktualizacja planowana na 2019-04-15

Dane meteo z obszaru Polski uzyskane na podstawie danych udostępnionych przez Instytut Meteorologii i Gospodarki Wodnej – Państwowy Instytut Badawczy.

 

Wybierz Datę:    

       

TemperaturaWilgotnośćWiatrCiśnienieOpadyŚniegCzas trwania zjawisk
 Stacja t tx tn tng RH VA  wxwx mslp ppp RRR   cm mm wxwxwxwxwxwxwx
1997-03-18-11.0 -7.5-13.1- 93.3 2.5 6.3 8.3 9.0 0.5- 831.5 5.3 0.1 5.2 38- 5.3- 2.1- 11.8---
1997-03-19 -5.2 -4.0-10.7- 97.1 4.1 7.9 16.6 24.0 9.5- 816.7 1.7 0.4 1.3 43- 0.2- 12.8- 23.7---
1997-03-20-12.3 -4.1-13.6- 98.8 2.4 8.0 13.6 11.5 7.5- 823.9 0.3 0.2 0.1 45 4.9 0.5- 13.3- 24.0---
1997-03-21-11.0 -7.1-14.5- 95.5 2.6 6.5 3.5 3.5 0.0- 828.9 1.5 0.7 0.8 45- 4.1- 18.6- 21.8---
1997-03-22 -9.8 -9.0-11.2- 99.4 2.9 8.0 13.8 19.7 10.0- 833.2 2.1 1.5 0.6 47- 0.1- 24.0- 24.0---
1997-03-23-10.4 -8.7-12.0- 94.1 2.6 6.3 7.3 7.3 4.5- 831.4 0.5 0.0 0.5 49- 9.2- 3.7- 8.7---
1997-03-24 -8.9 -6.3-10.9- 98.8 3.1 7.9 12.1 13.5 6.5- 826.4 0.5 0.5 0.0 46- 0.0- 4.0- 23.3---
1997-03-25 -7.7 -6.2 -8.3- 98.4 3.4 8.0 2.8 0.0 0.0- 829.7 0.8 0.8 0.0 46 3.5 0.0- 11.8- 24.0---
1997-03-26 -6.0 -3.9 -9.0- 96.6 3.8 6.3 7.0 11.5 4.5- 834.9 3.8 0.0 3.8 46- 8.3- 5.5- 15.3---
1997-03-27 -1.6 -0.1 -3.9- 97.3 5.3 7.3 29.8 24.0 24.0- 827.8 1.0 0.5 0.5 47- 0.3 3.3 4.5- 14.5---
1997-03-28 -3.7 0.1 -6.1- 97.5 4.6 7.9 36.5 24.0 24.0- 816.9 5.6 4.8 0.8 45- 0.0 1.0 4.3 1.8 23.7---
1997-03-29 -7.1 -5.4 -8.3- 98.3 3.5 8.0 23.1 24.0 24.0- 821.9 8.4 7.3 1.1 48- 0.3- 15.9- 24.0---
1997-03-30 -7.2 -6.1 -9.0- 97.1 3.5 6.8 17.0 18.3 16.3- 832.0 1.9 0.0 1.9 51- 6.2- 0.3- 15.8---
1997-03-31 -2.3 -0.7 -6.3- 92.8 4.8 6.6 13.8 21.5 1.5- 838.0 0.3 0.3 0.0 52 3.7 6.1 1.0 5.1- 14.0---
1997-04-01 3.2 4.4 -2.0- 53.6 4.1 2.9 4.3 2.0 0.0- 839.1 0.0 0.0 0.0 50- 10.5-------
1997-04-02 1.3 5.5 0.3- 71.6 4.7 1.1 5.4 0.0 0.0- 836.9 0.0 0.0 0.0 48 3.7 11.4-------
1997-04-03 1.8 4.2 -0.6- 75.6 5.2 3.5 13.8 17.5 9.5- 827.9 0.4 0.0 0.4 46 3.5 9.4 0.8 3.3 0.8 4.5---
1997-04-04 -7.8 3.0 -9.0- 97.3 3.3 7.6 25.1 24.0 24.0- 823.2 9.2 2.8 6.4 45 4.8 0.2- 11.1- 24.0---
1997-04-05 -8.2 -5.9-10.9- 98.3 3.3 7.8 22.6 24.0 24.0- 822.9 12.9 5.2 7.7 50 4.7 0.0- 14.4- 24.0---
1997-04-06 -7.8 -2.0-10.1- 98.8 3.4 8.0 29.4 24.0 24.0- 822.9 9.5 3.4 6.1 60- 0.0- 10.6- 24.0---
1997-04-07-10.9 -9.6-12.7- 94.9 2.5 5.9 18.1 24.0 22.5- 839.2 0.2 0.2 0.0 65- 4.2--- 17.1---
1997-04-08-10.1 -7.8-13.8- 76.0 2.2 3.5 6.4 2.5 0.0- 843.3 0.0 0.0 0.0 63- 9.8--- 2.5---
1997-04-09 -3.8 -1.8 -8.5- 84.0 3.9 6.1 8.4 6.5 0.0- 843.9 0.0 0.0 0.0 60- 1.9--- 3.5---
1997-04-10 -1.7 -0.3 -3.8- 85.9 4.6 6.1 21.4 24.0 22.5- 838.8 0.3 0.0 0.3 59 4.6 3.7- 1.0- 11.8---
1997-04-11 -3.6 0.5 -8.2- 93.3 4.5 7.6 46.9 24.0 24.0- 821.2 4.6 3.1 1.5 58- 0.0- 8.0- 18.5-- 0.5
1997-04-12 -9.0 -7.5 -9.7- 98.5 3.1 8.0 27.1 24.0 21.5- 827.1 8.9 7.2 1.7 60- 0.7- 8.7- 24.0---
1997-04-13-10.3 -7.0-13.0- 88.9 2.5 6.9 8.8 8.8 0.3- 834.7 0.0 0.0 0.0 64- 9.6- 1.5- 8.7---
1997-04-14 -3.7 -2.0 -8.0- 94.8 4.5 7.8 22.1 24.0 24.0- 829.3 10.9 4.5 6.4 60- 0.0- 16.5- 20.5---
1997-04-15 -8.5 -2.1-10.8- 98.6 3.2 7.9 21.3 24.0 24.0- 825.8 8.6 4.3 4.3 70 4.2 1.6- 13.1- 24.0---
1997-04-16 -9.8 -7.5-11.6- 98.9 2.9 8.0 15.6 24.0 12.0- 829.5 17.2 10.4 6.8 77- 0.0- 21.1- 24.0---
1215.4 ms

 

Źródłem pochodzenia danych jest Instytut Meteorologii i Gospodarki Wodnej – Państwowy Instytut Badawczy. Dane Instytutu Meteorologii i Gospodarki Wodnej – Państwowego Instytutu Badawczego zostały przetworzone.

Dane źródłowe można odnaleźć na stronie https://dane.imgw.pl